createdAt,value
2023-03-21T00:02:07.188Z,7.60
2023-03-21T00:04:48.495Z,7.55
2023-03-21T00:07:17.619Z,7.72
2023-03-21T00:09:44.544Z,7.72
2023-03-21T00:12:11.844Z,8.40
2023-03-21T00:14:39.298Z,6.78
2023-03-21T00:17:06.345Z,9.15
2023-03-21T00:19:33.405Z,8.38
2023-03-21T00:22:07.887Z,6.78
2023-03-21T00:24:36.628Z,8.20
2023-03-21T00:27:29.943Z,8.05
2023-03-21T00:29:50.953Z,9.85
2023-03-21T00:32:19.365Z,8.18
2023-03-21T00:34:59.583Z,9.00
2023-03-21T00:37:29.334Z,8.05
2023-03-21T00:39:56.362Z,10.18
2023-03-21T00:42:23.276Z,10.35
2023-03-21T00:44:51.376Z,10.32
2023-03-21T00:47:18.403Z,9.63
2023-03-21T00:49:45.468Z,11.93
2023-03-21T00:52:18.649Z,11.07
2023-03-21T00:54:49.638Z,10.50
2023-03-21T00:57:16.892Z,9.95
2023-03-21T00:59:43.834Z,10.88
2023-03-21T01:02:14.907Z,11.88
2023-03-21T01:04:42.109Z,12.68
2023-03-21T01:07:08.999Z,11.40
2023-03-21T01:09:35.905Z,11.82
2023-03-21T01:12:03.869Z,11.60
2023-03-21T01:14:30.852Z,11.73
2023-03-21T01:16:57.773Z,11.75
2023-03-21T01:19:40.997Z,12.52
2023-03-21T01:22:16.537Z,12.00
2023-03-21T01:24:53.823Z,10.27
2023-03-21T01:27:23.885Z,9.97
2023-03-21T01:29:50.822Z,9.98
2023-03-21T01:32:17.749Z,9.13
2023-03-21T01:34:44.689Z,8.90
2023-03-21T01:37:11.616Z,10.00
2023-03-21T01:39:38.583Z,10.70
2023-03-21T01:42:05.607Z,11.38
2023-03-21T01:44:32.663Z,12.55
2023-03-21T01:47:15.467Z,10.07
2023-03-21T01:49:46.391Z,8.25
2023-03-21T01:55:08.589Z,9.30
2023-03-21T01:57:52.219Z,8.52
2023-03-21T02:00:29.710Z,8.90
2023-03-21T02:03:11.298Z,9.15
2023-03-21T02:05:58.714Z,7.85
2023-03-21T02:08:38.322Z,9.50
2023-03-21T02:11:08.052Z,10.00
2023-03-21T02:13:36.393Z,10.20
2023-03-21T02:16:24.926Z,8.05
2023-03-21T02:19:33.012Z,7.07
2023-03-21T02:22:25.847Z,9.93
2023-03-21T02:25:22.502Z,10.40
2023-03-21T02:28:22.055Z,7.75
2023-03-21T02:31:24.075Z,7.95
2023-03-21T02:33:53.922Z,9.20
2023-03-21T02:36:45.502Z,8.93
2023-03-21T02:39:44.942Z,9.75
2023-03-21T02:42:44.969Z,7.60
2023-03-21T02:45:26.674Z,10.30
2023-03-21T02:47:58.987Z,6.25
2023-03-21T02:50:42.666Z,8.20
2023-03-21T02:53:13.863Z,8.45
2023-03-21T02:58:13.678Z,9.50
2023-03-21T03:00:43.001Z,9.18
2023-03-21T03:03:15.887Z,12.98
2023-03-21T03:05:56.024Z,12.43
2023-03-21T03:08:50.164Z,11.55
2023-03-21T03:11:30.115Z,11.85
2023-03-21T03:14:40.147Z,11.07
2023-03-21T03:17:31.868Z,10.93
2023-03-21T03:20:07.096Z,12.20
2023-03-21T03:23:01.942Z,11.77
2023-03-21T03:26:02.806Z,10.93
2023-03-21T03:28:37.988Z,9.90
2023-03-21T03:31:10.288Z,11.20
2023-03-21T03:33:41.650Z,10.27
2023-03-21T03:36:18.701Z,9.82
2023-03-21T03:38:57.527Z,12.85
2023-03-21T03:41:27.751Z,12.43
2023-03-21T03:43:58.280Z,11.55
2023-03-21T03:46:39.355Z,13.93
2023-03-21T03:49:20.472Z,11.43
2023-03-21T03:51:59.504Z,13.93
2023-03-21T03:54:40.031Z,14.10
2023-03-21T03:57:08.215Z,17.48
2023-03-21T03:59:38.241Z,13.00
2023-03-21T04:02:05.872Z,9.60
2023-03-21T04:04:33.092Z,11.05
2023-03-21T04:07:00.713Z,8.20
2023-03-21T04:09:43.052Z,8.27
2023-03-21T04:12:10.943Z,10.90
2023-03-21T04:14:44.528Z,9.90
2023-03-21T04:17:12.948Z,9.38
2023-03-21T04:19:39.867Z,8.60
2023-03-21T04:22:07.380Z,8.82
2023-03-21T04:24:34.440Z,9.80
2023-03-21T04:27:01.423Z,10.90
2023-03-21T04:29:29.959Z,19.10
2023-03-21T04:31:56.984Z,19.05
2023-03-21T04:34:28.308Z,12.73
2023-03-21T04:36:56.126Z,11.90
2023-03-21T04:39:24.757Z,11.15
2023-03-21T04:41:51.923Z,12.70
2023-03-21T04:44:19.332Z,12.57
2023-03-21T04:46:46.408Z,16.83
2023-03-21T04:49:13.474Z,17.13
2023-03-21T04:51:41.355Z,16.98
2023-03-21T04:56:35.506Z,6.03
2023-03-21T04:59:07.700Z,8.65
2023-03-21T05:01:34.743Z,10.63
2023-03-21T05:04:03.113Z,16.70
2023-03-21T05:06:30.821Z,19.25
2023-03-21T05:09:05.526Z,26.10
2023-03-21T05:11:35.983Z,16.75
2023-03-21T05:14:02.894Z,11.82
2023-03-21T05:16:31.009Z,9.30
2023-03-21T05:18:59.349Z,6.35
2023-03-21T05:21:29.645Z,5.25
2023-03-21T05:23:58.518Z,5.13
2023-03-21T05:26:25.477Z,4.13
2023-03-21T05:28:52.782Z,5.88
2023-03-21T05:31:20.587Z,4.80
2023-03-21T05:33:48.338Z,5.20
2023-03-21T05:36:16.055Z,2.67
2023-03-21T05:38:45.801Z,1.58
2023-03-21T05:41:14.217Z,1.63
2023-03-21T05:43:41.147Z,1.85
2023-03-21T05:46:09.121Z,1.15
2023-03-21T05:48:36.265Z,1.98
2023-03-21T05:51:03.871Z,1.00
2023-03-21T05:53:30.876Z,1.00
2023-03-21T05:55:58.095Z,1.10
2023-03-21T05:58:24.982Z,1.08
2023-03-21T06:00:51.882Z,1.23
2023-03-21T06:03:19.028Z,2.63
2023-03-21T06:05:45.964Z,1.50
2023-03-21T06:08:13.095Z,1.42
2023-03-21T06:10:40.043Z,1.85
2023-03-21T06:13:06.973Z,2.63
2023-03-21T06:15:34.465Z,4.47
2023-03-21T06:18:01.344Z,8.18
2023-03-21T06:20:28.342Z,12.45
2023-03-21T06:22:55.330Z,11.90
2023-03-21T06:25:22.330Z,11.05
2023-03-21T06:27:49.265Z,9.13
2023-03-21T06:30:17.978Z,8.43
2023-03-21T06:32:44.894Z,6.85
2023-03-21T06:35:11.825Z,4.47
2023-03-21T06:37:40.990Z,2.28
2023-03-21T06:40:09.950Z,1.52
2023-03-21T06:42:36.947Z,0.90
2023-03-21T06:45:04.237Z,1.60
2023-03-21T06:47:31.087Z,1.10
2023-03-21T06:49:57.950Z,1.25
2023-03-21T06:52:24.829Z,2.75
2023-03-21T06:54:51.660Z,2.28
2023-03-21T06:57:20.886Z,3.10
2023-03-21T06:59:47.855Z,3.38
2023-03-21T07:02:15.192Z,1.35
2023-03-21T07:04:42.092Z,2.17
2023-03-21T07:07:08.993Z,1.52
2023-03-21T07:09:36.066Z,2.05
2023-03-21T07:12:03.042Z,1.17
2023-03-21T07:14:32.142Z,2.25
2023-03-21T07:16:59.048Z,1.13
2023-03-21T07:19:26.524Z,1.02
2023-03-21T07:21:53.665Z,1.42
2023-03-21T07:24:20.539Z,3.40
2023-03-21T07:26:47.443Z,2.88
2023-03-21T07:29:15.500Z,1.50
2023-03-21T07:31:42.581Z,2.55
2023-03-21T07:34:09.532Z,2.67
2023-03-21T07:36:37.039Z,2.55
2023-03-21T07:39:06.439Z,1.85
2023-03-21T07:41:33.464Z,1.95
2023-03-21T07:44:00.376Z,2.53
2023-03-21T07:46:27.314Z,1.90
2023-03-21T07:48:54.321Z,3.53
2023-03-21T07:51:21.435Z,2.95
2023-03-21T07:53:48.842Z,3.92
2023-03-21T07:56:16.158Z,5.80
2023-03-21T07:58:43.094Z,9.00
2023-03-21T08:01:10.010Z,10.07
2023-03-21T08:03:38.228Z,4.15
2023-03-21T08:06:05.651Z,3.40
2023-03-21T08:08:33.477Z,2.53
2023-03-21T08:11:00.479Z,2.40
2023-03-21T08:13:27.869Z,3.70
2023-03-21T08:15:54.747Z,3.60
2023-03-21T08:18:21.602Z,6.18
2023-03-21T08:20:53.645Z,6.38
2023-03-21T08:23:21.717Z,7.75
2023-03-21T08:25:53.325Z,9.63
2023-03-21T08:28:20.931Z,9.45
2023-03-21T08:30:50.049Z,11.38
2023-03-21T08:33:18.856Z,14.50
2023-03-21T08:35:46.550Z,18.25
2023-03-21T08:38:13.943Z,20.90
2023-03-21T08:40:41.599Z,19.65
2023-03-21T08:43:08.582Z,18.17
2023-03-21T08:45:36.105Z,21.60
2023-03-21T08:48:04.614Z,22.50
2023-03-21T08:50:31.953Z,20.55
2023-03-21T08:52:58.927Z,23.23
2023-03-21T08:55:26.042Z,17.02
2023-03-21T08:57:55.805Z,16.20
2023-03-21T09:00:22.965Z,23.10
2023-03-21T09:02:54.797Z,25.27
2023-03-21T09:05:23.047Z,29.05
2023-03-21T09:07:49.989Z,27.83
2023-03-21T09:10:21.472Z,28.35
2023-03-21T09:12:51.191Z,27.48
2023-03-21T09:15:20.354Z,29.63
2023-03-21T09:17:52.786Z,28.52
2023-03-21T09:20:26.306Z,28.52
2023-03-21T09:22:53.959Z,30.85
2023-03-21T09:25:21.593Z,28.65
2023-03-21T09:27:48.827Z,33.08
2023-03-21T09:30:18.889Z,31.55
2023-03-21T09:32:48.667Z,33.70
2023-03-21T09:35:18.750Z,30.08
2023-03-21T09:37:50.127Z,26.95
2023-03-21T09:40:27.452Z,26.30
2023-03-21T09:43:21.318Z,29.27
2023-03-21T09:46:01.094Z,22.30
2023-03-21T09:48:56.801Z,17.67
2023-03-21T09:51:28.911Z,14.43
2023-03-21T09:54:00.693Z,15.90
2023-03-21T09:56:28.020Z,17.17
2023-03-21T09:58:59.484Z,21.95
2023-03-21T10:01:41.529Z,14.98
2023-03-21T10:04:12.726Z,20.85
2023-03-21T10:06:42.859Z,22.75
2023-03-21T10:09:12.896Z,23.55
2023-03-21T10:11:42.946Z,26.85
2023-03-21T10:14:35.024Z,16.52
2023-03-21T10:17:30.498Z,12.50
2023-03-21T10:20:18.026Z,8.18
2023-03-21T10:22:48.186Z,7.32
2023-03-21T10:25:19.091Z,5.93
2023-03-21T10:27:47.591Z,6.72
2023-03-21T10:30:32.279Z,6.22
2023-03-21T10:33:05.187Z,2.75
2023-03-21T10:35:37.403Z,3.45
2023-03-21T10:38:07.142Z,2.15
2023-03-21T10:40:35.494Z,4.03
2023-03-21T10:43:16.327Z,2.72
2023-03-21T10:45:46.581Z,4.10
2023-03-21T10:48:14.198Z,3.70
2023-03-21T10:50:42.848Z,5.40
2023-03-21T10:53:21.527Z,3.40
2023-03-21T10:55:52.450Z,2.67
2023-03-21T10:58:27.420Z,2.75
2023-03-21T11:01:01.699Z,4.25
2023-03-21T11:03:32.410Z,3.33
2023-03-21T11:06:26.616Z,6.13
2023-03-21T11:09:06.640Z,4.00
2023-03-21T11:11:38.193Z,4.63
2023-03-21T11:14:09.375Z,3.20
2023-03-21T11:16:45.471Z,3.75
2023-03-21T11:19:18.230Z,3.10
2023-03-21T11:21:45.730Z,3.35
2023-03-21T11:24:18.578Z,4.63
2023-03-21T11:26:48.321Z,2.90
2023-03-21T11:29:27.096Z,2.88
2023-03-21T11:31:59.239Z,3.78
2023-03-21T11:34:33.595Z,1.88
2023-03-21T11:37:02.873Z,1.65
2023-03-21T11:39:41.265Z,2.50
2023-03-21T11:42:33.957Z,2.65
2023-03-21T11:45:15.774Z,2.20
2023-03-21T11:47:43.290Z,2.45
2023-03-21T11:50:47.837Z,2.50
2023-03-21T11:53:40.282Z,3.47
2023-03-21T11:56:29.688Z,2.65
2023-03-21T11:59:16.248Z,2.63
2023-03-21T12:02:17.554Z,2.13
2023-03-21T12:04:51.585Z,3.55
2023-03-21T12:07:36.506Z,8.05
2023-03-21T12:10:46.495Z,8.65
2023-03-21T12:13:43.856Z,3.15
2023-03-21T12:16:29.577Z,2.85
2023-03-21T12:19:01.784Z,2.83
2023-03-21T12:21:55.181Z,2.50
2023-03-21T12:24:48.542Z,3.10
2023-03-21T12:27:37.684Z,2.08
2023-03-21T12:30:29.937Z,1.85
2023-03-21T12:32:59.626Z,6.22
2023-03-21T12:35:51.326Z,2.67
2023-03-21T12:38:46.212Z,1.58
2023-03-21T12:41:38.527Z,1.30
2023-03-21T12:44:17.551Z,3.28
2023-03-21T12:46:50.054Z,2.45
2023-03-21T12:49:32.443Z,3.13
2023-03-21T12:52:07.945Z,1.75
2023-03-21T12:55:00.455Z,3.55
2023-03-21T12:57:44.640Z,3.30
2023-03-21T13:00:17.840Z,4.47
2023-03-21T13:03:02.974Z,4.57
2023-03-21T13:05:38.312Z,3.13
2023-03-21T13:08:05.218Z,4.90
2023-03-21T13:10:33.861Z,4.25
2023-03-21T13:13:34.697Z,3.55
2023-03-21T13:16:27.520Z,2.58
2023-03-21T13:19:09.599Z,4.93
2023-03-21T13:22:03.875Z,3.40
2023-03-21T13:24:40.971Z,3.60
2023-03-21T13:27:25.100Z,2.67
2023-03-21T13:30:01.259Z,1.45
2023-03-21T13:32:30.888Z,2.38
2023-03-21T13:35:10.006Z,5.55
2023-03-21T13:37:43.917Z,2.15
2023-03-21T13:40:26.700Z,1.75
2023-03-21T13:42:59.728Z,5.50
2023-03-21T13:45:32.208Z,2.83
2023-03-21T13:48:03.813Z,1.17
2023-03-21T13:50:34.856Z,1.38
2023-03-21T13:55:41.530Z,2.65
2023-03-21T13:58:33.409Z,3.38
2023-03-21T14:01:16.923Z,2.22
2023-03-21T14:03:47.178Z,2.70
2023-03-21T14:06:15.892Z,2.13
2023-03-21T14:08:46.336Z,1.75
2023-03-21T14:11:19.710Z,5.00
2023-03-21T14:13:51.280Z,3.63
2023-03-21T14:16:21.521Z,2.85
2023-03-21T14:18:59.467Z,2.40
2023-03-21T14:21:31.401Z,3.13
2023-03-21T14:24:10.753Z,4.07
2023-03-21T14:26:43.055Z,3.03
2023-03-21T14:29:25.699Z,3.88
2023-03-21T14:31:55.538Z,2.90
2023-03-21T14:34:23.825Z,3.85
2023-03-21T14:36:57.483Z,5.85
2023-03-21T14:39:32.273Z,2.42
2023-03-21T14:42:09.501Z,1.67
2023-03-21T14:44:53.849Z,4.40
2023-03-21T14:47:23.653Z,3.75
2023-03-21T14:49:51.434Z,1.80
2023-03-21T14:52:30.432Z,2.88
2023-03-21T14:54:58.498Z,1.90
2023-03-21T14:57:29.413Z,2.28
2023-03-21T14:59:59.293Z,3.20
2023-03-21T15:02:34.688Z,3.88
2023-03-21T15:05:20.198Z,4.45
2023-03-21T15:08:00.368Z,6.32
2023-03-21T15:10:30.907Z,6.18
2023-03-21T15:13:01.369Z,6.35
2023-03-21T15:15:30.041Z,2.80
2023-03-21T15:18:03.038Z,3.10
2023-03-21T15:20:34.092Z,1.60
2023-03-21T15:25:34.393Z,2.97
2023-03-21T15:28:01.985Z,5.60
2023-03-21T15:30:32.005Z,4.95
2023-03-21T15:33:06.686Z,6.38
2023-03-21T15:35:46.968Z,3.45
2023-03-21T15:38:40.443Z,3.33
2023-03-21T15:41:15.485Z,3.15
2023-03-21T15:43:42.668Z,15.98
2023-03-21T15:46:18.246Z,6.10
2023-03-21T15:48:45.538Z,4.43
2023-03-21T15:51:22.537Z,2.60
2023-03-21T15:53:52.026Z,6.45
2023-03-21T15:56:21.618Z,3.78
2023-03-21T15:58:52.194Z,5.43
2023-03-21T16:01:22.250Z,3.90
2023-03-21T16:03:56.765Z,5.35
2023-03-21T16:06:35.866Z,3.35
2023-03-21T16:09:25.027Z,5.18
2023-03-21T16:11:57.476Z,5.72
2023-03-21T16:14:27.982Z,3.58
2023-03-21T16:16:56.338Z,3.40
2023-03-21T16:19:24.707Z,6.78
2023-03-21T16:21:52.840Z,6.30
2023-03-21T16:24:19.718Z,6.20
2023-03-21T16:26:50.874Z,5.90
2023-03-21T16:29:21.023Z,9.38
2023-03-21T16:31:49.619Z,4.47
2023-03-21T16:34:16.746Z,4.82
2023-03-21T16:36:45.099Z,8.32
2023-03-21T16:39:16.670Z,6.28
2023-03-21T16:41:43.669Z,4.22
2023-03-21T16:44:10.581Z,3.70
2023-03-21T16:46:39.178Z,4.53
2023-03-21T16:49:06.215Z,4.88
2023-03-21T16:51:36.108Z,6.65
2023-03-21T16:54:03.417Z,5.13
2023-03-21T16:56:38.611Z,9.32
2023-03-21T16:59:08.446Z,9.43
2023-03-21T17:01:38.450Z,6.63
2023-03-21T17:04:05.656Z,5.88
2023-03-21T17:06:32.862Z,9.40
2023-03-21T17:09:00.657Z,11.73
2023-03-21T17:11:31.856Z,10.07
2023-03-21T17:13:58.734Z,13.90
2023-03-21T17:16:27.027Z,13.55
2023-03-21T17:18:54.700Z,11.90
2023-03-21T17:21:28.466Z,14.98
2023-03-21T17:23:56.302Z,15.77
2023-03-21T17:26:26.220Z,13.65
2023-03-21T17:28:55.451Z,14.57
2023-03-21T17:31:24.643Z,16.38
2023-03-21T17:33:51.768Z,13.32
2023-03-21T17:36:34.416Z,12.73
2023-03-21T17:39:02.385Z,12.27
2023-03-21T17:41:29.741Z,7.70
2023-03-21T17:43:57.046Z,8.88
2023-03-21T17:46:25.782Z,6.25
2023-03-21T17:48:52.926Z,7.00
2023-03-21T17:51:19.983Z,3.80
2023-03-21T17:53:50.762Z,4.60
2023-03-21T17:56:32.070Z,5.20
2023-03-21T17:59:09.010Z,7.32
2023-03-21T18:01:38.218Z,5.80
2023-03-21T18:04:05.549Z,4.32
2023-03-21T18:06:34.409Z,5.35
2023-03-21T18:09:04.682Z,5.35
2023-03-21T18:11:32.307Z,5.25
2023-03-21T18:14:10.258Z,9.52
2023-03-21T18:16:43.487Z,7.05
2023-03-21T18:19:13.270Z,7.68
2023-03-21T18:21:45.845Z,8.18
2023-03-21T18:24:13.875Z,8.25
2023-03-21T18:26:41.648Z,8.15
2023-03-21T18:30:13.179Z,9.00
2023-03-21T18:32:06.418Z,7.57
2023-03-21T18:34:37.193Z,8.80
2023-03-21T18:37:07.543Z,10.18
2023-03-21T18:39:35.097Z,6.97
2023-03-21T18:42:04.114Z,12.77
2023-03-21T18:44:37.721Z,24.17
2023-03-21T18:47:06.810Z,14.32
2023-03-21T18:52:21.378Z,9.57
2023-03-21T18:54:49.119Z,11.70
2023-03-21T18:57:35.604Z,7.30
2023-03-21T19:00:12.798Z,9.55
2023-03-21T19:02:46.292Z,6.55
2023-03-21T19:05:15.744Z,12.65
2023-03-21T19:07:43.098Z,20.45
2023-03-21T19:10:19.590Z,15.75
2023-03-21T19:12:51.816Z,14.65
2023-03-21T19:15:21.559Z,20.13
2023-03-21T19:20:38.003Z,16.80
2023-03-21T19:23:08.227Z,19.48
2023-03-21T19:28:03.905Z,19.38
2023-03-21T19:30:30.873Z,21.88
2023-03-21T19:32:57.771Z,19.92
2023-03-21T19:35:25.215Z,21.00
2023-03-21T19:37:52.179Z,20.00
2023-03-21T19:40:19.986Z,18.95
2023-03-21T19:42:46.914Z,23.15
2023-03-21T19:45:13.847Z,22.40
2023-03-21T19:47:41.432Z,22.13
2023-03-21T19:50:47.835Z,24.77
2023-03-21T19:52:56.621Z,22.17
2023-03-21T19:55:23.917Z,24.92
2023-03-21T19:57:52.329Z,22.70
2023-03-21T20:00:20.067Z,22.58
2023-03-21T20:02:47.377Z,23.70
2023-03-21T20:05:16.982Z,22.92
2023-03-21T20:07:44.605Z,16.13
2023-03-21T20:10:11.868Z,18.20
2023-03-21T20:12:38.821Z,16.88
2023-03-21T20:15:16.457Z,15.60
2023-03-21T20:17:44.939Z,21.60
2023-03-21T20:20:15.405Z,19.42
2023-03-21T20:23:05.608Z,22.10
2023-03-21T20:25:30.309Z,28.55
2023-03-21T20:28:14.625Z,27.05
2023-03-21T20:30:53.048Z,27.48
2023-03-21T20:33:20.294Z,30.85
2023-03-21T20:38:38.148Z,22.10
2023-03-21T20:41:06.655Z,17.25
2023-03-21T20:44:24.413Z,18.80
2023-03-21T20:46:21.029Z,15.60
2023-03-21T20:48:49.787Z,12.77
2023-03-21T20:52:24.255Z,14.55
2023-03-21T20:54:04.834Z,17.80
2023-03-21T20:56:32.011Z,15.77
2023-03-21T20:59:14.638Z,16.45
2023-03-21T21:01:45.824Z,16.63
2023-03-21T21:04:19.224Z,14.57
2023-03-21T21:06:47.628Z,16.27
2023-03-21T21:09:14.523Z,16.23
2023-03-21T21:14:28.818Z,11.95
2023-03-21T21:16:58.948Z,14.95
2023-03-21T21:19:28.351Z,11.27
2023-03-21T21:21:55.441Z,11.35
2023-03-21T21:24:22.370Z,11.85
2023-03-21T21:26:49.678Z,14.30
2023-03-21T21:29:18.423Z,12.45
2023-03-21T21:31:47.540Z,15.10
2023-03-21T21:34:15.942Z,15.65
2023-03-21T21:36:44.994Z,20.23
2023-03-21T21:39:18.683Z,19.27
2023-03-21T21:41:45.652Z,16.65
2023-03-21T21:44:12.584Z,15.35
2023-03-21T21:46:39.708Z,15.60
2023-03-21T21:49:06.768Z,13.15
2023-03-21T21:51:34.190Z,16.52
2023-03-21T21:54:03.951Z,16.00
2023-03-21T21:56:38.546Z,12.85
2023-03-21T21:59:05.616Z,19.35
2023-03-21T22:01:34.918Z,16.67
2023-03-21T22:04:08.321Z,20.95
2023-03-21T22:06:35.309Z,17.20
2023-03-21T22:09:02.891Z,15.55
2023-03-21T22:11:30.045Z,16.85
2023-03-21T22:13:57.163Z,18.10
2023-03-21T22:16:24.091Z,17.30
2023-03-21T22:18:51.665Z,17.30
2023-03-21T22:21:18.564Z,17.17
2023-03-21T22:23:45.447Z,13.70
2023-03-21T22:26:12.519Z,16.38
2023-03-21T22:28:42.199Z,15.05
2023-03-21T22:31:12.504Z,11.80
2023-03-21T22:33:39.444Z,10.77
2023-03-21T22:36:06.648Z,9.27
2023-03-21T22:38:34.714Z,7.95
2023-03-21T22:41:03.862Z,6.00
2023-03-21T22:43:34.351Z,6.40
2023-03-21T22:46:03.145Z,6.43
2023-03-21T22:48:30.291Z,7.75
2023-03-21T22:50:58.709Z,7.65
2023-03-21T22:53:25.811Z,4.75
2023-03-21T22:55:52.989Z,4.22
2023-03-21T22:58:20.050Z,3.50
2023-03-21T23:00:47.426Z,4.30
2023-03-21T23:03:16.773Z,3.13
2023-03-21T23:05:44.972Z,2.75
2023-03-21T23:08:12.949Z,2.40
2023-03-21T23:10:43.869Z,3.75
2023-03-21T23:13:11.231Z,4.07
2023-03-21T23:15:41.231Z,4.13
2023-03-21T23:18:08.193Z,4.78
2023-03-21T23:20:35.497Z,2.83
2023-03-21T23:23:02.574Z,2.25
2023-03-21T23:25:30.467Z,2.55
2023-03-21T23:27:57.544Z,3.20
2023-03-21T23:30:24.535Z,4.15
2023-03-21T23:32:51.494Z,2.33
2023-03-21T23:35:18.649Z,1.98
2023-03-21T23:37:52.624Z,3.60
2023-03-21T23:40:20.513Z,2.80
2023-03-21T23:42:47.418Z,2.65
2023-03-21T23:45:14.383Z,3.75
2023-03-21T23:47:41.336Z,3.47
2023-03-21T23:50:10.084Z,2.45
2023-03-21T23:52:37.802Z,3.97
2023-03-21T23:55:05.932Z,3.55
2023-03-21T23:57:33.219Z,2.85
